Atlantic - Newfoundland: Past 24 Hour Conditions

 

St. Lawrence

07:30 AM NDT 24 July 2014
This table is a summary of hourly weather conditions for the past 24 hours.
Date / Time
(NDT)
Wind(knots) Conditions Visibility(km) Pressure(kPa) Air tempC) Relative humidity(%) Dew pointC) Humidex
24 July 2014
7:30 WSW 11 N/A N/A 100.9 17 92 15 *
6:30 SW 10 N/A N/A 100.9 16 94 15 *
5:30 WSW 12 gust 18 N/A N/A 100.9 16 94 15 *
4:30 SW 11 gust 16 N/A N/A 100.8 16 95 15 *
3:30 SW 12 gust 18 N/A N/A 100.9 16 95 15 *
2:30 SW 10 gust 16 N/A N/A 100.9 16 94 15 *
1:30 SW 8 N/A N/A 100.9 15 94 14 *
0:30 SW 8 N/A N/A 101.0 15 91 14 *
23 July 2014
23:30 SW 11 gust 16 N/A N/A 101.0 16 87 13 *
22:30 WSW 11 gust 16 N/A N/A 101.0 15 88 13 *
21:30 SW 7 N/A N/A 101.0 15 88 13 *
20:30 SW 12 N/A N/A 101.0 16 85 14 *
19:30 SW 12 gust 18 N/A N/A 101.0 17 81 14 *
18:30 WSW 9 gust 16 N/A N/A 101.0 19 78 15 *
17:30 WSW 14 gust 20 N/A N/A 100.9 19 79 15 *
16:30 WSW 16 gust 24 N/A N/A 101.0 19 77 15 *
15:30 SW 14 gust 20 N/A N/A 101.0 20 77 16 25
14:30 SW 18 gust 23 N/A N/A 101.0 20 77 16 *
13:30 SW 17 gust 24 N/A N/A 101.0 20 79 16 *
12:30 WSW 15 N/A N/A 101.0 19 80 16 *
11:30 WSW 12 gust 20 N/A N/A 101.1 18 84 15 *
10:30 WSW 15 gust 21 N/A N/A 101.1 18 83 15 *
9:30 WSW 12 gust 17 N/A N/A 101.1 17 86 15 *
8:30 SW 9 N/A N/A 101.1 16 91 14 *
7:30 SW 9 N/A N/A 101.1 15 94 14 *
 
Map of Atlantic - Newfoundland marine weather areas Southwestern Grand Banks - 44138 Banquereau - 44139 Tail of the Bank - 44140 Nickerson Bank - 44251 Northeast Burgeo Bank - 44255 Blanc-Sablon Airport Cap Whittle Chevery Natashquan Airport Heath Point Miscou Island Grand Étang Ingonish Beach North Mountain St.Paul Island J.A. Douglas McCurdy Sydney Airport Charlottetown Airport East Point North Cape Argentia Bonavista Burgeo Cape Race Corner Brook Daniel's Harbour Englee Ferolle Point La Scie Port aux Basques Rocky Harbour Sagona Island St. Anthony Airport St. John's Int'l Airport St. Lawrence Stephenville Airport Twillingate Winterland Wreckhouse Cartwright Airport Mary's Harbour Grates Cove Pool's Island Marticot Island Long Pond Îles de la Madeleine Airport
Legend: buoyBuoy land stationLand Station